Terminal Aerodrome Forecast
Issued by NWS

Home | Current Version | Previous Version | Text Only | Print | Product List | Glossary On
Versions: 1 2 3 4 5 6 7 8 9 10 11 12 13 14 15 16 17 18 19 20 21 22 23 24 25 26 27 28 29 30 31 32 33 34 35 36
000
FTUS45 KGJT 060008 AAA
TAFDRO
TAF AMD
KDRO 060008Z 0600/0624 25010KT P6SM -RA SCT025 BKN040
      TEMPO 0600/0602 3SM -RA BR SCT015 BKN025
     FM060400 24005KT P6SM VCSH SCT050 BKN070
      TEMPO 0604/0608 -RA BKN050
     FM060800 10006KT 5SM -RA BR OVC050
     FM061400 16008KT P6SM VCSH SCT060 BKN080=

USA.gov is the U.S. government's official web portal to all federal, state and local government web resources and services.